Time;durP1;ratioP1;P1;durP2;ratioP2;P2;SDS_P1;SDS_P2;PMS_P1;PMS_P2;Temp;Humidity;BMP_temperature;BMP_pressure;BME280_temperature;BME280_humidity;BME280_pressure;Samples;Min_cycle;Max_cycle;Signal;HPM_P1;HPM_P2
2023/02/18 00:00:16;;;;;;;9.32;7.18;;;;;;;10.98;100.00;101058.22;5051919;28;20045;-79
2023/02/18 00:02:44;;;;;;;8.75;7.05;;;;;;;11.00;100.00;101035.16;5069125;28;20072;-79
2023/02/18 00:05:23;;;;;;;9.80;7.40;;;;;;;9.99;100.00;100884.47;5071781;28;20044;-78
2023/02/18 00:07:52;;;;;;;9.65;7.10;;;;;;;9.87;100.00;100854.97;5071803;28;20059;-80
2023/02/18 00:10:24;;;;;;;8.23;7.10;;;;;;;9.85;100.00;100853.25;5072038;28;20059;-80
2023/02/18 00:12:56;;;;;;;7.70;6.90;;;;;;;10.93;100.00;101035.44;5072571;28;20062;-80
2023/02/18 00:15:27;;;;;;;7.63;6.55;;;;;;;11.59;100.00;101149.50;5070117;28;20048;-80
2023/02/18 00:17:54;;;;;;;9.02;6.13;;;;;;;9.55;100.00;100804.13;5071663;28;20114;-79
2023/02/18 00:20:28;;;;;;;8.93;6.55;;;;;;;9.42;100.00;100794.91;5071067;28;20049;-80
2023/02/18 00:22:56;;;;;;;7.47;5.65;;;;;;;11.03;100.00;101061.53;5072814;28;20048;-80
2023/02/18 00:25:27;;;;;;;6.95;5.20;;;;;;;11.49;100.00;101161.38;5070837;28;20486;-80
2023/02/18 00:27:59;;;;;;;4.80;3.80;;;;;;;11.45;100.00;101141.22;5052054;28;20139;-79
2023/02/18 00:30:27;;;;;;;3.35;3.03;;;;;;;9.69;100.00;100843.28;5070614;28;20055;-79
2023/02/18 00:33:00;;;;;;;3.42;2.47;;;;;;;9.62;100.00;100836.47;5073652;28;20052;-81
2023/02/18 00:35:27;;;;;;;2.60;2.05;;;;;;;10.29;100.00;100963.69;5073828;28;20102;-80
2023/02/18 00:37:54;;;;;;;2.97;1.90;;;;;;;10.66;100.00;101038.22;5055957;28;20056;-80
2023/02/18 00:40:29;;;;;;;2.67;2.05;;;;;;;11.37;100.00;101137.13;5066137;28;20053;-79
2023/02/18 00:42:58;;;;;;;2.65;2.13;;;;;;;9.75;100.00;100854.50;5072907;28;20045;-80
2023/02/18 00:45:24;;;;;;;3.35;2.67;;;;;;;10.84;100.00;101042.84;5073651;28;20063;-79
2023/02/18 00:47:51;;;;;;;4.07;2.90;;;;;;;10.34;100.00;100961.75;5072934;28;20121;-78
2023/02/18 00:50:18;;;;;;;4.35;3.45;;;;;;;11.46;100.00;101166.81;5054738;28;20060;-79
2023/02/18 00:52:46;;;;;;;4.15;3.33;;;;;;;10.31;100.00;100961.84;5055106;28;20053;-79
2023/02/18 00:55:13;;;;;;;6.30;3.55;;;;;;;9.64;100.00;100846.06;5071901;28;20135;-79
2023/02/18 00:57:40;;;;;;;6.18;3.78;;;;;;;11.43;100.00;101148.38;5071822;28;20102;-81
2023/02/18 01:00:10;;;;;;;4.50;3.50;;;;;;;10.55;100.00;101003.31;5075606;28;20057;-80
2023/02/18 01:02:37;;;;;;;4.57;3.60;;;;;;;10.68;100.00;101039.03;5074345;28;20569;-80
2023/02/18 01:05:07;;;;;;;4.68;3.15;;;;;;;9.50;100.00;100878.28;5068566;28;20048;-81
2023/02/18 01:07:33;;;;;;;4.97;3.65;;;;;;;9.43;100.00;100863.59;5073776;28;20489;-80
2023/02/18 01:10:00;;;;;;;4.65;3.75;;;;;;;10.57;100.00;101061.50;5075145;28;20052;-79
2023/02/18 01:12:27;;;;;;;6.88;3.72;;;;;;;10.35;100.00;101027.00;5075472;28;20101;-79
2023/02/18 01:14:53;;;;;;;5.63;4.10;;;;;;;10.11;100.00;100996.94;5074672;28;20080;-80
2023/02/18 01:17:20;;;;;;;6.40;3.97;;;;;;;10.84;100.00;101135.56;5074596;28;20184;-80
2023/02/18 01:19:47;;;;;;;7.35;5.00;;;;;;;9.81;100.00;100951.28;5074578;28;20520;-80
2023/02/18 01:22:17;;;;;;;5.63;4.65;;;;;;;9.69;100.00;100951.69;5074878;28;20405;-78
2023/02/18 01:24:43;;;;;;;7.38;5.95;;;;;;;9.13;100.00;100832.91;5074975;28;20076;-81
2023/02/18 01:27:12;;;;;;;8.13;6.18;;;;;;;10.38;100.00;101018.97;5073386;28;20072;-81
2023/02/18 01:29:39;;;;;;;7.15;5.43;;;;;;;10.26;100.00;101000.84;5070119;28;20052;-81
2023/02/18 01:32:06;;;;;;;6.00;4.72;;;;;;;9.92;100.00;100927.06;5074194;28;20036;-82
2023/02/18 01:34:36;;;;;;;5.25;4.13;;;;;;;10.66;100.00;101051.47;5073921;28;20076;-82
2023/02/18 01:37:16;;;;;;;6.25;3.92;;;;;;;10.03;100.00;100948.75;5066477;28;20052;-82
2023/02/18 01:39:46;;;;;;;7.07;3.70;;;;;;;10.08;100.00;100976.75;5067153;28;20060;-82
2023/02/18 01:42:23;;;;;;;3.85;3.40;;;;;;;10.48;100.00;101013.28;5072624;28;20147;-79
2023/02/18 01:44:50;;;;;;;6.18;3.60;;;;;;;10.12;100.00;100983.66;5074140;28;20063;-79
2023/02/18 01:47:18;;;;;;;5.07;2.92;;;;;;;10.30;100.00;100997.19;5057214;28;20052;-80
2023/02/18 01:49:51;;;;;;;4.72;3.00;;;;;;;9.12;100.00;100781.00;5072126;28;20092;-80
2023/02/18 01:52:23;;;;;;;3.05;2.63;;;;;;;10.43;100.00;101011.69;5074533;28;20048;-79
2023/02/18 01:54:56;;;;;;;3.97;2.78;;;;;;;9.60;100.00;100872.72;5074253;28;20143;-82
2023/02/18 01:57:28;;;;;;;4.60;2.97;;;;;;;9.96;100.00;100934.84;5074574;28;20138;-79
2023/02/18 01:59:58;;;;;;;5.70;3.70;;;;;;;10.47;100.00;101008.91;5074214;28;20075;-79
2023/02/18 02:02:32;;;;;;;5.35;3.90;;;;;;;9.43;100.00;100838.94;5074715;28;20056;-79
2023/02/18 02:05:00;;;;;;;6.05;4.10;;;;;;;11.01;100.00;101121.69;5074142;28;20052;-80
2023/02/18 02:07:27;;;;;;;4.57;3.78;;;;;;;10.16;100.00;100974.69;5056721;28;20079;-79
2023/02/18 02:09:58;;;;;;;4.40;3.60;;;;;;;9.97;100.00;100918.06;5072835;28;20051;-80
2023/02/18 02:12:43;;;;;;;4.72;3.25;;;;;;;11.15;100.00;101099.97;5074049;28;20464;-81
2023/02/18 02:15:41;;;;;;;3.35;2.60;;;;;;;11.06;100.00;101081.75;5067994;28;20131;-80
2023/02/18 02:18:20;;;;;;;2.63;2.15;;;;;;;11.22;100.00;101096.16;5065815;28;20674;-80
2023/02/18 02:21:04;;;;;;;2.63;1.85;;;;;;;10.86;100.00;101030.38;5073788;28;20048;-79
2023/02/18 02:24:13;;;;;;;3.35;2.33;;;;;;;11.18;100.00;101087.44;5055452;28;20575;-79
2023/02/18 02:27:07;;;;;;;2.72;2.03;;;;;;;11.19;100.00;101083.00;5070569;28;20056;-80
2023/02/18 02:30:16;;;;;;;3.60;2.45;;;;;;;10.67;100.00;101002.88;5069651;28;20147;-81
2023/02/18 02:33:02;;;;;;;6.05;2.85;;;;;;;10.78;100.00;101021.00;5070721;28;20078;-79
2023/02/18 02:35:34;;;;;;;3.28;2.05;;;;;;;10.11;100.00;100915.78;5073485;28;20572;-80
2023/02/18 02:38:17;;;;;;;2.35;1.88;;;;;;;11.19;100.00;101085.66;5072862;28;20087;-80
2023/02/18 02:40:54;;;;;;;4.47;2.15;;;;;;;11.22;100.00;101088.19;5069566;28;20040;-79
2023/02/18 02:43:32;;;;;;;2.63;2.03;;;;;;;11.22;100.00;101080.25;5073095;28;20048;-78
2023/02/18 02:46:24;;;;;;;4.20;2.17;;;;;;;10.66;100.00;100972.00;5073481;28;20090;-79
2023/02/18 02:49:28;;;;;;;4.13;1.90;;;;;;;11.20;100.00;101071.47;5070840;28;20052;-80
2023/02/18 02:52:13;;;;;;;2.75;1.77;;;;;;;11.19;100.00;101065.31;5042837;28;20615;-79
2023/02/18 02:54:39;;;;;;;3.33;1.80;;;;;;;10.24;100.00;100910.91;5071723;28;20072;-79
2023/02/18 02:57:12;;;;;;;2.95;1.50;;;;;;;10.79;100.00;101005.03;5072251;28;20052;-81
2023/02/18 02:59:43;;;;;;;1.35;1.10;;;;;;;11.08;100.00;101062.22;5053557;28;20100;-80
2023/02/18 03:02:27;;;;;;;;;;;;;;;11.22;100.00;101073.16;5065369;28;20101;-80
2023/02/18 03:05:23;;;;;;;1.98;1.20;;;;;;;11.16;100.00;101073.41;5070172;28;20361;-80
2023/02/18 03:08:01;;;;;;;1.38;0.90;;;;;;;10.42;100.00;100943.78;5072639;28;20076;-81
2023/02/18 03:10:52;;;;;;;1.45;1.00;;;;;;;11.18;100.00;101073.31;5066518;28;20147;-80
2023/02/18 03:13:38;;;;;;;1.05;0.77;;;;;;;10.82;100.00;101022.63;5067055;28;20059;-82
2023/02/18 03:16:14;;;;;;;0.85;0.77;;;;;;;11.16;100.00;101076.06;5068611;28;20052;-79
2023/02/18 03:19:09;;;;;;;3.00;0.80;;;;;;;11.18;100.00;101073.31;5066748;28;20106;-81
2023/02/18 03:22:00;;;;;;;2.40;1.00;;;;;;;11.10;100.00;101057.72;5066777;28;20067;-82
2023/02/18 03:24:38;;;;;;;0.88;0.80;;;;;;;11.18;100.00;101068.88;5073638;28;20139;-79
2023/02/18 03:27:13;;;;;;;1.05;0.75;;;;;;;11.18;100.00;101062.72;5072541;28;20060;-80
2023/02/18 03:29:45;;;;;;;1.15;0.70;;;;;;;10.88;100.00;101015.28;5067233;28;20139;-80
2023/02/18 03:32:17;;;;;;;1.65;0.80;;;;;;;11.10;100.00;101059.50;5072977;28;20406;-79
2023/02/18 03:34:52;;;;;;;2.03;0.80;;;;;;;10.30;100.00;100923.94;5072585;28;20053;-80
2023/02/18 03:37:23;;;;;;;1.20;0.82;;;;;;;10.33;100.00;100933.56;5066021;28;20044;-81
2023/02/18 03:39:55;;;;;;;2.55;0.82;;;;;;;10.51;100.00;100977.88;5072038;28;20087;-80
2023/02/18 03:42:26;;;;;;;2.25;0.98;;;;;;;9.66;100.00;100856.59;5065955;28;20064;-79
2023/02/18 03:44:56;;;;;;;1.10;0.98;;;;;;;11.08;100.00;101083.44;5072711;28;20076;-79
2023/02/18 03:47:26;;;;;;;0.90;0.80;;;;;;;10.40;100.00;100951.78;5072737;28;20154;-81
2023/02/18 03:49:53;;;;;;;1.13;0.65;;;;;;;10.86;100.00;101034.84;5072128;28;20478;-79
2023/02/18 03:52:20;;;;;;;0.90;0.80;;;;;;;10.43;100.00;100964.03;5061422;28;20045;-79
2023/02/18 03:54:49;;;;;;;1.58;0.70;;;;;;;11.13;100.00;101088.56;5072290;28;20102;-80
2023/02/18 03:57:18;;;;;;;1.05;0.95;;;;;;;10.89;100.00;101045.28;5072155;28;20734;-80
2023/02/18 03:59:44;;;;;;;6.53;1.30;;;;;;;10.86;100.00;101019.75;5072470;28;20055;-80
2023/02/18 04:02:11;;;;;;;2.05;1.13;;;;;;;10.34;100.00;100930.00;5070341;28;20428;-79
2023/02/18 04:04:40;;;;;;;1.25;0.93;;;;;;;10.13;100.00;100906.00;5072622;28;20052;-79
2023/02/18 04:07:07;;;;;;;2.08;1.17;;;;;;;10.72;100.00;101010.63;5072401;28;20060;-79
2023/02/18 04:09:34;;;;;;;1.50;1.20;;;;;;;10.61;100.00;100981.91;5071908;28;20084;-78
2023/02/18 04:12:01;;;;;;;2.72;1.05;;;;;;;9.55;100.00;100816.47;5072453;28;20045;-79
2023/02/18 04:14:27;;;;;;;2.28;1.40;;;;;;;9.91;100.00;100860.09;5071925;28;20048;-80
2023/02/18 04:16:54;;;;;;;1.55;0.95;;;;;;;9.90;100.00;100858.38;5071613;28;20477;-78
2023/02/18 04:19:21;;;;;;;1.17;0.90;;;;;;;10.29;100.00;100939.88;5071356;28;20102;-79
2023/02/18 04:21:47;;;;;;;0.95;0.88;;;;;;;10.23;100.00;100945.41;5066412;28;20489;-80
2023/02/18 04:24:14;;;;;;;1.45;1.00;;;;;;;10.28;100.00;100931.06;5054002;28;20053;-81
2023/02/18 04:26:41;;;;;;;1.10;1.00;;;;;;;10.34;100.00;100961.75;5072404;28;20045;-79
2023/02/18 04:29:07;;;;;;;2.97;1.10;;;;;;;11.00;100.00;101068.75;5071564;28;20055;-80
2023/02/18 04:31:34;;;;;;;2.17;1.30;;;;;;;10.23;100.00;100935.66;5072214;28;20064;-79
2023/02/18 04:34:01;;;;;;;1.52;1.30;;;;;;;10.98;100.00;101063.50;5074404;28;20051;-79
2023/02/18 04:36:30;;;;;;;1.35;0.93;;;;;;;9.80;100.00;100854.31;5090623;28;20060;-79
2023/02/18 04:38:56;;;;;;;2.08;1.20;;;;;;;9.84;100.00;100856.81;5083786;28;20078;-80
2023/02/18 04:41:23;;;;;;;2.40;1.30;;;;;;;10.71;100.00;100995.66;5087647;28;20056;-80
2023/02/18 04:43:50;;;;;;;1.75;1.10;;;;;;;9.15;100.00;100743.88;5082102;28;20059;-80
2023/02/18 04:46:16;;;;;;;1.88;1.35;;;;;;;9.24;100.00;100748.84;5069668;28;20485;-79
2023/02/18 04:48:43;;;;;;;1.30;1.10;;;;;;;9.59;100.00;100808.38;5077239;28;20061;-79
2023/02/18 04:51:10;;;;;;;1.40;1.20;;;;;;;9.61;100.00;100809.16;5076559;28;20139;-80
2023/02/18 04:53:36;;;;;;;2.92;1.42;;;;;;;9.82;100.00;100839.25;5076223;28;20049;-80
2023/02/18 04:56:03;;;;;;;1.30;1.20;;;;;;;9.33;100.00;100748.50;5075913;28;20060;-80
2023/02/18 04:58:30;;;;;;;1.17;0.98;;;;;;;10.86;100.00;101034.84;5076302;28;20052;-80
2023/02/18 05:01:01;;;;;;;1.77;1.05;;;;;;;10.39;100.00;100939.47;5057362;28;20113;-81
2023/02/18 05:03:28;;;;;;;1.52;0.85;;;;;;;9.95;100.00;100859.03;5076645;28;20053;-79
2023/02/18 05:05:56;;;;;;;2.45;0.90;;;;;;;9.36;100.00;100755.47;5074858;28;20071;-80
2023/02/18 05:08:23;;;;;;;8.73;1.52;;;;;;;10.98;100.00;101023.75;5074696;28;20102;-81
2023/02/18 05:10:51;;;;;;;2.08;1.70;;;;;;;10.29;100.00;100929.28;5075778;28;20045;-80
2023/02/18 05:13:18;;;;;;;2.00;1.58;;;;;;;10.24;100.00;100910.91;5067174;28;20098;-80
2023/02/18 05:15:45;;;;;;;3.38;1.80;;;;;;;9.88;100.00;100843.47;5075121;28;20075;-80
2023/02/18 05:18:11;;;;;;;3.70;1.80;;;;;;;9.70;100.00;100834.44;5075020;28;20131;-80
2023/02/18 05:20:41;;;;;;;2.90;2.00;;;;;;;10.01;100.00;100898.53;5074967;28;20116;-79
2023/02/18 05:23:07;;;;;;;2.75;1.80;;;;;;;9.90;100.00;100883.97;5075020;28;20079;-80
2023/02/18 05:25:34;;;;;;;2.28;1.70;;;;;;;9.83;100.00;100897.41;5075736;28;20064;-80
2023/02/18 05:28:03;;;;;;;3.42;2.08;;;;;;;9.45;100.00;100843.22;5074709;28;20053;-80
2023/02/18 05:30:30;;;;;;;3.63;2.80;;;;;;;10.55;100.00;101003.31;5056842;28;20445;-79
2023/02/18 05:32:57;;;;;;;3.15;2.30;;;;;;;9.81;100.00;100885.16;5074398;28;20501;-80
2023/02/18 05:35:23;;;;;;;3.38;1.95;;;;;;;10.30;100.00;100950.41;5074758;28;20151;-80
2023/02/18 05:37:50;;;;;;;3.55;2.05;;;;;;;9.81;100.00;100893.94;5072991;28;20478;-80
2023/02/18 05:40:17;;;;;;;3.20;2.10;;;;;;;8.43;100.00;100639.91;5056586;28;20138;-81
2023/02/18 05:42:43;;;;;;;2.55;1.70;;;;;;;9.68;100.00;100855.63;5075155;28;20091;-79
2023/02/18 05:45:10;;;;;;;2.47;1.98;;;;;;;9.63;100.00;100822.34;5072087;28;20080;-79
2023/02/18 05:47:37;;;;;;;3.58;1.80;;;;;;;10.33;100.00;100931.78;5057295;28;20102;-80
2023/02/18 05:50:04;;;;;;;4.68;1.70;;;;;;;10.30;100.00;100909.84;5074614;28;20075;-80
2023/02/18 05:52:31;;;;;;;2.90;1.65;;;;;;;10.01;100.00;100848.25;5074958;28;20055;-79
2023/02/18 05:54:59;;;;;;;1.60;1.50;;;;;;;9.01;100.00;100666.91;5074767;28;20048;-80
2023/02/18 05:57:25;;;;;;;2.15;1.45;;;;;;;10.87;100.00;100999.44;5056401;28;20063;-79
2023/02/18 05:59:52;;;;;;;2.53;1.40;;;;;;;10.73;100.00;100957.59;5072959;28;20424;-81
2023/02/18 06:02:19;;;;;;;1.52;1.40;;;;;;;10.87;100.00;100968.50;5070339;28;20067;-78
2023/02/18 06:04:46;;;;;;;2.25;1.63;;;;;;;10.91;100.00;100961.31;5069718;28;20052;-79
2023/02/18 06:07:13;;;;;;;1.75;1.65;;;;;;;9.93;100.00;100799.16;5073829;28;20080;-79
2023/02/18 06:09:40;;;;;;;4.82;2.10;;;;;;;9.78;100.00;100771.53;5069067;28;20082;-80
2023/02/18 06:12:09;;;;;;;3.10;1.90;;;;;;;10.01;100.00;100800.63;5065447;28;20128;-78
2023/02/18 06:14:37;;;;;;;2.95;2.10;;;;;;;10.60;100.00;100908.66;5073587;28;20135;-80
2023/02/18 06:17:03;;;;;;;3.88;2.25;;;;;;;10.94;100.00;100962.97;5073016;28;20139;-80
2023/02/18 06:19:30;;;;;;;3.15;2.10;;;;;;;10.80;100.00;100934.38;5067470;28;20066;-80
2023/02/18 06:21:57;;;;;;;2.72;2.20;;;;;;;10.41;100.00;100878.50;5074439;28;20052;-80
2023/02/18 06:24:23;;;;;;;3.40;2.05;;;;;;;10.97;100.00;100968.16;5074190;28;20049;-80
2023/02/18 06:26:50;;;;;;;2.42;2.10;;;;;;;10.76;100.00;100925.69;5068270;28;20076;-79
2023/02/18 06:29:16;;;;;;;3.08;1.88;;;;;;;10.96;100.00;100963.78;5070351;28;20057;-81
2023/02/18 06:31:43;;;;;;;2.35;1.60;;;;;;;10.62;100.00;100909.47;5073452;28;20162;-78
2023/02/18 06:34:10;;;;;;;2.97;2.28;;;;;;;9.85;100.00;100787.13;5073480;28;20048;-79
2023/02/18 06:36:36;;;;;;;3.63;2.58;;;;;;;10.89;100.00;100939.31;5073930;28;20438;-79
2023/02/18 06:39:05;;;;;;;2.97;2.25;;;;;;;9.26;100.00;100658.97;5073813;28;20056;-79
2023/02/18 06:41:32;;;;;;;3.53;2.30;;;;;;;10.53;100.00;100904.53;5073111;28;20497;-80
2023/02/18 06:43:58;;;;;;;3.65;2.25;;;;;;;10.74;100.00;100927.53;5073361;28;20062;-79
2023/02/18 06:46:25;;;;;;;3.22;2.70;;;;;;;11.02;100.00;100966.22;5065130;28;20546;-80
2023/02/18 06:48:52;;;;;;;2.10;1.90;;;;;;;10.39;100.00;100872.44;5072741;28;20073;-80
2023/02/18 06:51:19;;;;;;;5.18;2.15;;;;;;;10.41;100.00;100860.84;5050129;28;20106;-79
2023/02/18 06:53:47;;;;;;;2.28;1.77;;;;;;;10.70;100.00;100907.41;5070751;28;20110;-79
2023/02/18 06:56:14;;;;;;;2.85;1.90;;;;;;;10.31;100.00;100818.91;5071616;28;20064;-79
2023/02/18 06:58:40;;;;;;;3.40;2.38;;;;;;;11.06;100.00;100952.75;5072694;28;20340;-80
2023/02/18 07:01:10;;;;;;;2.08;1.85;;;;;;;9.90;100.00;100775.50;5072664;28;20056;-80
2023/02/18 07:03:37;;;;;;;2.50;2.15;;;;;;;9.01;100.00;100603.50;5054336;28;20063;-80
2023/02/18 07:06:04;;;;;;;3.25;2.22;;;;;;;10.41;100.00;100838.81;5055054;28;20167;-80
2023/02/18 07:08:34;;;;;;;3.35;2.40;;;;;;;10.49;100.00;100831.44;5069657;28;20383;-79
2023/02/18 07:11:01;;;;;;;2.67;2.45;;;;;;;10.14;100.00;100786.00;5072996;28;20052;-79
2023/02/18 07:13:31;;;;;;;3.50;2.55;;;;;;;10.70;100.00;100864.16;5073085;28;20131;-79
2023/02/18 07:15:59;;;;;;;2.90;2.60;;;;;;;9.25;100.00;100618.47;5069441;28;20055;-80
2023/02/18 07:18:28;;;;;;;3.05;2.30;;;;;;;9.98;100.00;100757.53;5071484;28;20063;-79
2023/02/18 07:20:55;;;;;;;3.13;2.50;;;;;;;9.86;100.00;100743.00;5071687;28;20238;-81
2023/02/18 07:23:22;;;;;;;4.07;2.58;;;;;;;10.42;100.00;100837.88;5071383;28;20045;-80
2023/02/18 07:25:49;;;;;;;2.20;2.00;;;;;;;10.46;100.00;100829.75;5069554;28;20139;-80
2023/02/18 07:28:16;;;;;;;2.70;2.50;;;;;;;11.06;100.00;100925.38;5053228;28;20086;-79
2023/02/18 07:30:43;;;;;;;2.15;2.03;;;;;;;11.05;100.00;100934.25;5055222;28;20475;-80
2023/02/18 07:33:13;;;;;;;2.38;1.95;;;;;;;10.36;100.00;100822.25;5073705;28;20044;-80
2023/02/18 07:35:39;;;;;;;2.90;1.90;;;;;;;10.09;100.00;100787.94;5073340;28;20051;-80
2023/02/18 07:38:06;;;;;;;2.92;2.00;;;;;;;10.39;100.00;100825.63;5073308;28;20566;-80
2023/02/18 07:40:36;;;;;;;2.35;1.92;;;;;;;10.59;100.00;100847.81;5072443;28;20063;-80
2023/02/18 07:43:02;;;;;;;1.52;1.42;;;;;;;9.99;100.00;100754.84;5073233;28;20072;-80
2023/02/18 07:45:31;;;;;;;1.83;1.20;;;;;;;10.16;100.00;100797.38;5074198;28;20049;-81
2023/02/18 07:47:58;;;;;;;1.60;1.35;;;;;;;10.52;100.00;100834.84;5072999;28;20053;-80
2023/02/18 07:50:27;;;;;;;1.80;1.50;;;;;;;9.88;100.00;100696.22;5071208;28;20060;-79
2023/02/18 07:52:54;;;;;;;3.70;2.10;;;;;;;10.33;100.00;100777.38;5072804;28;20045;-79
2023/02/18 07:55:23;;;;;;;2.03;1.80;;;;;;;11.16;100.00;100938.22;5063924;28;20058;-80
2023/02/18 07:57:56;;;;;;;2.38;1.67;;;;;;;10.83;100.00;100876.84;5073431;28;20106;-80
2023/02/18 08:00:23;;;;;;;4.13;2.00;;;;;;;11.07;100.00;100932.41;5073077;28;20489;-79
2023/02/18 08:02:58;;;;;;;3.03;1.88;;;;;;;10.12;100.00;100766.66;5066265;28;20485;-82
2023/02/18 08:05:25;;;;;;;2.88;1.80;;;;;;;10.46;100.00;100818.31;5071670;28;20072;-81
2023/02/18 08:08:12;;;;;;;3.50;2.00;;;;;;;10.55;100.00;100828.53;5066957;28;20681;-80
2023/02/18 08:10:42;;;;;;;;;;;;;;;11.14;100.00;100926.81;5077065;28;20489;-80
2023/02/18 08:13:17;;;;;;;4.63;2.10;;;;;;;10.82;100.00;100861.88;5074527;28;19978;-79
2023/02/18 08:15:46;;;;;;;3.03;2.72;;;;;;;10.09;100.00;100742.97;5076321;28;20044;-81
2023/02/18 08:18:19;;;;;;;3.17;2.50;;;;;;;9.28;100.00;100628.06;5076686;28;20056;-81
2023/02/18 08:20:53;;;;;;;4.07;2.60;;;;;;;10.00;100.00;100753.91;5076731;28;20143;-80
2023/02/18 08:23:27;;;;;;;3.55;2.53;;;;;;;10.74;100.00;100903.69;5075280;28;20048;-81
2023/02/18 08:26:01;;;;;;;4.78;3.20;;;;;;;9.70;100.00;100705.72;5072436;28;20060;-81
2023/02/18 08:28:31;;;;;;;4.32;3.30;;;;;;;10.41;100.00;100826.44;5077076;28;20052;-81
2023/02/18 08:31:04;;;;;;;5.70;3.22;;;;;;;10.81;100.00;100897.22;5077261;28;20071;-81
2023/02/18 08:33:32;;;;;;;3.70;2.83;;;;;;;11.21;100.00;100943.31;5076153;28;20386;-80
2023/02/18 08:36:17;;;;;;;4.78;3.35;;;;;;;9.53;100.00;100686.13;5078194;28;20056;-80
2023/02/18 08:38:55;;;;;;;3.35;3.05;;;;;;;10.17;100.00;100759.41;5071650;28;20052;-81
2023/02/18 08:41:25;;;;;;;3.97;2.60;;;;;;;9.60;100.00;100647.97;5076676;28;20048;-80
2023/02/18 08:43:52;;;;;;;3.97;2.70;;;;;;;10.53;100.00;100822.44;5075930;28;20048;-80
2023/02/18 08:46:22;;;;;;;6.10;2.67;;;;;;;10.86;100.00;100889.94;5078711;28;20053;-79
2023/02/18 08:49:00;;;;;;;3.92;2.67;;;;;;;11.21;99.26;100951.25;5078486;28;20060;-80
2023/02/18 08:51:30;;;;;;;4.05;2.80;;;;;;;9.07;98.84;100576.88;5079185;28;20050;-80
2023/02/18 08:54:00;;;;;;;;;;;;;;;11.37;100.00;100956.81;5078661;28;20131;-81
2023/02/18 08:56:35;;;;;;;3.60;3.28;;;;;;;11.35;98.86;100961.31;5069995;28;19927;-79
2023/02/18 08:59:02;;;;;;;4.00;3.60;;;;;;;11.19;99.48;100911.56;5073654;28;20056;-80
2023/02/18 09:01:43;;;;;;;3.92;3.08;;;;;;;9.99;97.01;100691.34;5078593;28;20689;-79
2023/02/18 09:04:11;;;;;;;5.25;3.50;;;;;;;10.50;97.92;100759.88;5078160;28;20045;-80
2023/02/18 09:06:54;;;;;;;3.47;2.88;;;;;;;10.95;96.91;100843.69;5077221;28;20056;-80
2023/02/18 09:09:23;;;;;;;5.00;2.90;;;;;;;11.04;95.66;100864.47;5076394;28;20052;-81
2023/02/18 09:11:50;;;;;;;6.53;2.95;;;;;;;10.47;96.12;100757.34;5078672;28;20409;-81
2023/02/18 09:14:20;;;;;;;4.00;2.67;;;;;;;10.61;95.14;100790.34;5064346;28;20109;-80
2023/02/18 09:16:51;;;;;;;4.15;2.60;;;;;;;10.93;95.89;100872.03;5076580;28;20098;-81
2023/02/18 09:19:20;;;;;;;3.28;2.65;;;;;;;10.54;94.68;100772.09;5075985;28;20053;-80
2023/02/18 09:21:53;;;;;;;3.95;2.65;;;;;;;11.60;94.71;100956.72;5081352;28;20044;-82
2023/02/18 09:24:26;;;;;;;3.53;2.20;;;;;;;11.18;93.76;100877.16;5086480;28;20252;-79
2023/02/18 09:26:55;;;;;;;3.72;2.40;;;;;;;10.96;95.17;100856.00;5088339;28;20058;-80
2023/02/18 09:29:25;;;;;;;3.13;2.17;;;;;;;10.92;94.75;100846.44;5083604;28;20057;-80
2023/02/18 09:31:54;;;;;;;3.20;2.10;;;;;;;10.73;93.83;100803.94;5070742;28;20083;-81
2023/02/18 09:34:21;;;;;;;3.53;2.03;;;;;;;11.67;94.31;100966.13;5090900;28;20071;-79
2023/02/18 09:36:48;;;;;;;2.50;2.08;;;;;;;11.69;95.17;100955.44;5087089;28;20048;-80
2023/02/18 09:39:16;;;;;;;3.05;2.00;;;;;;;11.66;94.68;100942.31;5073800;28;20059;-78
2023/02/18 09:41:53;;;;;;;2.67;1.80;;;;;;;11.74;93.92;100962.31;5086661;28;20044;-79
2023/02/18 09:44:45;;;;;;;3.10;2.10;;;;;;;11.70;94.18;100946.56;5087224;28;20155;-79
2023/02/18 09:47:20;;;;;;;2.33;1.95;;;;;;;9.78;93.71;100631.34;5086067;28;20048;-79
2023/02/18 09:49:54;;;;;;;3.00;2.03;;;;;;;9.94;94.38;100682.72;5081650;28;20048;-80
2023/02/18 09:52:32;;;;;;;3.33;2.00;;;;;;;11.06;93.54;100872.38;5085904;28;20036;-81
2023/02/18 09:55:18;;;;;;;2.78;2.10;;;;;;;10.42;95.23;100769.91;5080938;28;20562;-81
2023/02/18 09:57:55;;;;;;;2.50;1.75;;;;;;;11.51;95.49;100960.59;5079307;28;20052;-78
2023/02/18 10:00:31;;;;;;;3.63;1.73;;;;;;;10.00;95.99;100706.28;5060387;28;20044;-79
2023/02/18 10:03:15;;;;;;;2.80;1.80;;;;;;;10.44;96.01;100785.72;5077307;28;20044;-80
2023/02/18 10:06:00;;;;;;;3.25;1.70;;;;;;;11.59;96.25;100971.78;5056350;28;20608;-80
2023/02/18 10:08:41;;;;;;;1.73;1.42;;;;;;;11.62;95.20;100968.13;5077279;28;20056;-81
2023/02/18 10:11:15;;;;;;;1.88;1.33;;;;;;;10.01;95.43;100696.56;5073376;28;20071;-78
2023/02/18 10:13:49;;;;;;;1.85;1.40;;;;;;;9.89;95.53;100697.94;5073027;28;20102;-79
2023/02/18 10:16:20;;;;;;;2.00;1.00;;;;;;;9.54;96.08;100619.13;5076368;28;20048;-80
2023/02/18 10:18:58;;;;;;;1.58;1.10;;;;;;;9.70;96.19;100675.75;5074142;28;20425;-80
2023/02/18 10:21:37;;;;;;;2.17;0.97;;;;;;;10.65;96.10;100814.00;5078742;28;20044;-80
2023/02/18 10:24:39;;;;;;;2.42;0.80;;;;;;;11.14;96.92;100884.41;5081106;28;20047;-79
2023/02/18 10:27:11;;;;;;;1.83;0.95;;;;;;;11.03;95.85;100865.41;5012320;28;20046;-80
2023/02/18 10:29:37;;;;;;;1.85;0.80;;;;;;;10.89;95.61;100842.13;5073677;28;20076;-79
2023/02/18 10:32:27;;;;;;;2.50;0.80;;;;;;;11.58;96.12;100964.75;5059514;28;20056;-81
2023/02/18 10:35:22;;;;;;;1.63;0.63;;;;;;;11.58;96.76;100962.09;5073709;28;20063;-81
2023/02/18 10:38:16;;;;;;;0.60;0.60;;;;;;;11.29;96.36;100909.41;5073565;28;20049;-81
2023/02/18 10:41:13;;;;;;;0.93;0.70;;;;;;;11.76;95.30;100959.63;5070767;28;20048;-81
2023/02/18 10:44:43;;;;;;;1.33;0.63;;;;;;;11.72;94.05;100958.84;5067737;28;20058;-80
2023/02/18 10:47:34;;;;;;;1.33;0.68;;;;;;;10.60;93.92;100765.66;4971627;28;20074;-79
2023/02/18 10:50:08;;;;;;;1.08;0.70;;;;;;;11.72;95.06;100965.94;5074192;28;20063;-80
2023/02/18 10:52:41;;;;;;;2.35;0.70;;;;;;;11.64;95.08;100953.03;5068081;28;20540;-80
2023/02/18 10:55:14;;;;;;;0.65;0.50;;;;;;;10.32;94.58;100773.00;5073802;28;20140;-80
2023/02/18 10:57:53;;;;;;;0.70;0.40;;;;;;;11.30;95.62;100924.38;5070785;28;20131;-81
2023/02/18 11:00:25;;;;;;;2.95;0.50;;;;;;;11.58;95.55;100967.38;5071993;28;20050;-82
2023/02/18 11:03:23;;;;;;;1.92;0.70;;;;;;;10.47;96.32;100777.69;5061369;28;20056;-82
2023/02/18 11:05:58;;;;;;;2.38;0.55;;;;;;;10.49;95.75;100760.81;5068542;28;20592;-82
2023/02/18 11:08:28;;;;;;;2.05;0.52;;;;;;;10.52;95.58;100778.34;5055999;28;20040;-82
2023/02/18 11:11:09;;;;;;;0.77;0.70;;;;;;;10.72;96.61;100767.78;5054467;28;20059;-81
2023/02/18 11:13:40;;;;;;;1.13;0.40;;;;;;;9.81;94.50;100612.72;5064111;28;20832;-81
2023/02/18 11:16:14;;;;;;;0.95;0.40;;;;;;;10.83;95.13;100789.41;5069381;28;20669;-81
2023/02/18 11:18:45;;;;;;;1.67;0.70;;;;;;;10.65;94.48;100784.00;5069934;28;20110;-81
2023/02/18 11:21:25;;;;;;;1.65;0.52;;;;;;;10.52;95.20;100763.34;5069802;28;20051;-81
2023/02/18 11:23:54;;;;;;;1.67;0.70;;;;;;;11.35;95.91;100887.06;5068644;28;20056;-80
2023/02/18 11:26:29;;;;;;;2.08;0.50;;;;;;;11.00;95.57;100825.81;5072339;28;20048;-81
2023/02/18 11:29:05;;;;;;;2.20;0.65;;;;;;;10.64;95.17;100742.56;5072689;28;20139;-80
2023/02/18 11:31:45;;;;;;;1.55;0.57;;;;;;;11.89;94.32;100919.22;5070886;28;20056;-80
2023/02/18 11:34:29;;;;;;;1.27;1.00;;;;;;;10.50;92.71;100677.81;5072003;28;20041;-79
2023/02/18 11:37:08;;;;;;;2.03;0.73;;;;;;;11.82;94.25;100906.25;5067371;28;20052;-79
2023/02/18 11:39:38;;;;;;;3.55;0.80;;;;;;;10.78;93.86;100730.47;5070355;28;20472;-82
2023/02/18 11:42:06;;;;;;;1.63;0.90;;;;;;;10.75;93.09;100725.28;5069230;28;20117;-81
2023/02/18 11:44:40;;;;;;;2.33;0.80;;;;;;;11.00;94.11;100801.97;5067877;28;20136;-79